Houston, Texas
Traffic Map
Current Weather Conditions
Houston, Texas
Clear
Clear
55°
Feels Like: 55°
Wind Chill: 55° Ceiling: Unl
Heat Index: 55° Visibility: 10mi
Dew Point: 34° Wind: 17mph
Humidity: 44% Direction: 350° (N)
Pressure: 30.01in Gusts: 23mph
Raw Report DataKMCJ 241515Z AUTO 35015G20KT 040V010 10SM CLR 13/01 A3001 RMK AO1
Traffic Incident Summary
Active as of:
Severity:
Category:
InformationThere was an issue retrieving the traffic information for this location. Please try a different location or try again shortly.
Advertisements
Track Severe Weather on mobile